Ashland, Maine
Current Conditions -  °F | °C
As of 5:35 AM on Thursday 27 Nov 2014 (Local Time) from KPQI Reporting Station
Overcast Overcast  
Wind Chill: 12°   Ceiling: 1200
Heat Index: 25°   Visibility: 2.5mi
Dew Point: 19°   Wind: 16mph
Humidity: 80%   Direction: 360°N
Pressure: 29.8"   Gusts: NA
Location:  46.63°N, 68.41°W
Report Text: KPQI 271035Z AUTO 36014KT 2 1/2SM OVC012 M04/M07 A2980 RMK AO1
Loading
Personal Weather Stations






























Interactive Weather Map New forecast layout! Learn more

10-Day Weather Forecast

Advertisements
Track Severe Weather on mobile